sensor_id;sensor_type;location;lat;lon;timestamp;temperature;humidity
75615;DHT22;64199;48.578;-4.520;2022-12-17T00:01:44;22.30;42.40
75615;DHT22;64199;48.578;-4.520;2022-12-17T00:04:28;22.30;42.40
75615;DHT22;64199;48.578;-4.520;2022-12-17T00:07:13;22.30;42.40
75615;DHT22;64199;48.578;-4.520;2022-12-17T00:09:57;22.30;42.40
75615;DHT22;64199;48.578;-4.520;2022-12-17T00:12:41;22.20;42.40
75615;DHT22;64199;48.578;-4.520;2022-12-17T00:15:26;22.20;42.50
75615;DHT22;64199;48.578;-4.520;2022-12-17T00:18:10;22.20;42.50
75615;DHT22;64199;48.578;-4.520;2022-12-17T00:20:57;22.30;42.50
75615;DHT22;64199;48.578;-4.520;2022-12-17T00:23:41;22.20;42.50
75615;DHT22;64199;48.578;-4.520;2022-12-17T00:26:26;22.20;42.50
75615;DHT22;64199;48.578;-4.520;2022-12-17T00:29:10;22.20;42.50
75615;DHT22;64199;48.578;-4.520;2022-12-17T00:31:54;22.20;42.50
75615;DHT22;64199;48.578;-4.520;2022-12-17T00:34:38;22.20;42.50
75615;DHT22;64199;48.578;-4.520;2022-12-17T00:37:23;22.20;42.50
75615;DHT22;64199;48.578;-4.520;2022-12-17T00:40:09;22.20;42.50
75615;DHT22;64199;48.578;-4.520;2022-12-17T00:43:09;22.20;42.50
75615;DHT22;64199;48.578;-4.520;2022-12-17T00:45:54;22.20;42.50
75615;DHT22;64199;48.578;-4.520;2022-12-17T00:48:39;22.20;42.50
75615;DHT22;64199;48.578;-4.520;2022-12-17T00:51:24;22.20;42.60
75615;DHT22;64199;48.578;-4.520;2022-12-17T00:54:09;22.20;42.60
75615;DHT22;64199;48.578;-4.520;2022-12-17T00:56:53;22.20;42.60
75615;DHT22;64199;48.578;-4.520;2022-12-17T00:59:38;22.20;42.60
75615;DHT22;64199;48.578;-4.520;2022-12-17T01:02:23;22.20;42.60
75615;DHT22;64199;48.578;-4.520;2022-12-17T01:05:08;22.20;42.60
75615;DHT22;64199;48.578;-4.520;2022-12-17T01:07:54;22.20;42.60
75615;DHT22;64199;48.578;-4.520;2022-12-17T01:10:41;22.20;42.60
75615;DHT22;64199;48.578;-4.520;2022-12-17T01:13:26;22.20;42.50
75615;DHT22;64199;48.578;-4.520;2022-12-17T01:16:14;22.20;42.60
75615;DHT22;64199;48.578;-4.520;2022-12-17T01:18:59;22.10;42.60
75615;DHT22;64199;48.578;-4.520;2022-12-17T01:21:44;22.10;42.50
75615;DHT22;64199;48.578;-4.520;2022-12-17T01:24:29;22.10;42.60
75615;DHT22;64199;48.578;-4.520;2022-12-17T01:27:14;22.10;42.50
75615;DHT22;64199;48.578;-4.520;2022-12-17T01:29:58;22.10;42.60
75615;DHT22;64199;48.578;-4.520;2022-12-17T01:32:43;22.10;42.60
75615;DHT22;64199;48.578;-4.520;2022-12-17T01:35:27;22.10;42.60
75615;DHT22;64199;48.578;-4.520;2022-12-17T01:38:21;22.10;42.60
75615;DHT22;64199;48.578;-4.520;2022-12-17T01:41:09;22.20;42.60
75615;DHT22;64199;48.578;-4.520;2022-12-17T01:43:55;22.10;42.60
75615;DHT22;64199;48.578;-4.520;2022-12-17T01:46:46;22.10;42.60
75615;DHT22;64199;48.578;-4.520;2022-12-17T01:49:33;22.10;42.60
75615;DHT22;64199;48.578;-4.520;2022-12-17T01:52:18;22.10;42.60
75615;DHT22;64199;48.578;-4.520;2022-12-17T01:55:07;22.10;42.60
75615;DHT22;64199;48.578;-4.520;2022-12-17T01:57:52;22.10;42.60
75615;DHT22;64199;48.578;-4.520;2022-12-17T02:00:36;22.10;42.60
75615;DHT22;64199;48.578;-4.520;2022-12-17T02:03:23;22.10;42.60
75615;DHT22;64199;48.578;-4.520;2022-12-17T02:06:23;22.10;42.70
75615;DHT22;64199;48.578;-4.520;2022-12-17T02:09:24;22.10;42.60
75615;DHT22;64199;48.578;-4.520;2022-12-17T02:18:11;22.10;42.60
75615;DHT22;64199;48.578;-4.520;2022-12-17T02:20:58;22.10;42.70
75615;DHT22;64199;48.578;-4.520;2022-12-17T02:23:55;22.10;42.70
75615;DHT22;64199;48.578;-4.520;2022-12-17T02:26:55;22.10;42.70
75615;DHT22;64199;48.578;-4.520;2022-12-17T02:29:49;22.10;42.70
75615;DHT22;64199;48.578;-4.520;2022-12-17T02:32:39;22.10;42.80
75615;DHT22;64199;48.578;-4.520;2022-12-17T02:35:38;22.10;42.80
75615;DHT22;64199;48.578;-4.520;2022-12-17T02:38:29;22.10;42.90
75615;DHT22;64199;48.578;-4.520;2022-12-17T02:44:00;22.10;43.00
75615;DHT22;64199;48.578;-4.520;2022-12-17T02:49:14;22.10;43.40
75615;DHT22;64199;48.578;-4.520;2022-12-17T02:51:58;22.00;43.30
75615;DHT22;64199;48.578;-4.520;2022-12-17T02:54:43;22.10;43.40
75615;DHT22;64199;48.578;-4.520;2022-12-17T02:57:27;22.00;44.00
75615;DHT22;64199;48.578;-4.520;2022-12-17T03:00:12;22.00;43.50
75615;DHT22;64199;48.578;-4.520;2022-12-17T03:02:56;22.00;43.60
75615;DHT22;64199;48.578;-4.520;2022-12-17T03:05:43;22.00;44.00
75615;DHT22;64199;48.578;-4.520;2022-12-17T03:08:28;22.00;44.10
75615;DHT22;64199;48.578;-4.520;2022-12-17T03:11:12;22.00;44.10
75615;DHT22;64199;48.578;-4.520;2022-12-17T03:13:56;22.00;44.10
75615;DHT22;64199;48.578;-4.520;2022-12-17T03:16:41;22.00;44.20
75615;DHT22;64199;48.578;-4.520;2022-12-17T03:19:26;22.10;44.30
75615;DHT22;64199;48.578;-4.520;2022-12-17T03:22:10;22.00;44.40
75615;DHT22;64199;48.578;-4.520;2022-12-17T03:24:56;22.00;44.40
75615;DHT22;64199;48.578;-4.520;2022-12-17T03:27:40;22.00;44.30
75615;DHT22;64199;48.578;-4.520;2022-12-17T03:30:24;22.00;44.40
75615;DHT22;64199;48.578;-4.520;2022-12-17T03:33:10;22.00;44.20
75615;DHT22;64199;48.578;-4.520;2022-12-17T03:35:56;22.00;44.20
75615;DHT22;64199;48.578;-4.520;2022-12-17T03:38:41;22.00;44.10
75615;DHT22;64199;48.578;-4.520;2022-12-17T03:41:26;22.00;44.10
75615;DHT22;64199;48.578;-4.520;2022-12-17T03:44:13;21.90;44.00
75615;DHT22;64199;48.578;-4.520;2022-12-17T03:46:57;22.00;44.00
75615;DHT22;64199;48.578;-4.520;2022-12-17T03:49:42;22.00;43.80
75615;DHT22;64199;48.578;-4.520;2022-12-17T03:52:26;21.90;43.60
75615;DHT22;64199;48.578;-4.520;2022-12-17T03:55:11;22.00;43.50
75615;DHT22;64199;48.578;-4.520;2022-12-17T03:57:55;21.90;43.40
75615;DHT22;64199;48.578;-4.520;2022-12-17T04:00:40;21.90;43.30
75615;DHT22;64199;48.578;-4.520;2022-12-17T04:03:25;21.90;43.30
75615;DHT22;64199;48.578;-4.520;2022-12-17T04:06:09;21.90;43.20
75615;DHT22;64199;48.578;-4.520;2022-12-17T04:08:54;21.90;43.20
75615;DHT22;64199;48.578;-4.520;2022-12-17T04:11:39;21.90;43.20
75615;DHT22;64199;48.578;-4.520;2022-12-17T04:14:24;21.90;43.30
75615;DHT22;64199;48.578;-4.520;2022-12-17T04:17:08;21.90;43.60
75615;DHT22;64199;48.578;-4.520;2022-12-17T04:19:52;21.90;43.90
75615;DHT22;64199;48.578;-4.520;2022-12-17T04:22:37;21.90;43.90
75615;DHT22;64199;48.578;-4.520;2022-12-17T04:25:22;21.90;44.20
75615;DHT22;64199;48.578;-4.520;2022-12-17T04:28:08;21.90;44.40
75615;DHT22;64199;48.578;-4.520;2022-12-17T04:30:52;21.90;44.40
75615;DHT22;64199;48.578;-4.520;2022-12-17T04:33:37;21.80;44.50
75615;DHT22;64199;48.578;-4.520;2022-12-17T04:36:22;21.80;44.70
75615;DHT22;64199;48.578;-4.520;2022-12-17T04:39:07;21.80;44.90
75615;DHT22;64199;48.578;-4.520;2022-12-17T04:41:54;21.80;44.90
75615;DHT22;64199;48.578;-4.520;2022-12-17T04:44:39;21.80;44.90
75615;DHT22;64199;48.578;-4.520;2022-12-17T04:47:23;21.80;44.80
75615;DHT22;64199;48.578;-4.520;2022-12-17T04:50:13;21.80;44.70
75615;DHT22;64199;48.578;-4.520;2022-12-17T04:52:59;21.90;44.70
75615;DHT22;64199;48.578;-4.520;2022-12-17T04:55:44;21.80;44.60
75615;DHT22;64199;48.578;-4.520;2022-12-17T04:58:29;21.80;44.60
75615;DHT22;64199;48.578;-4.520;2022-12-17T05:01:16;21.80;44.70
75615;DHT22;64199;48.578;-4.520;2022-12-17T05:04:00;21.80;44.70
75615;DHT22;64199;48.578;-4.520;2022-12-17T05:06:45;21.70;44.70
75615;DHT22;64199;48.578;-4.520;2022-12-17T05:09:29;21.80;44.70
75615;DHT22;64199;48.578;-4.520;2022-12-17T05:12:17;21.80;44.60
75615;DHT22;64199;48.578;-4.520;2022-12-17T05:15:02;21.80;44.50
75615;DHT22;64199;48.578;-4.520;2022-12-17T05:17:46;21.70;44.40
75615;DHT22;64199;48.578;-4.520;2022-12-17T05:20:31;21.70;44.40
75615;DHT22;64199;48.578;-4.520;2022-12-17T05:23:15;21.80;44.40
75615;DHT22;64199;48.578;-4.520;2022-12-17T05:26:21;21.70;44.30
75615;DHT22;64199;48.578;-4.520;2022-12-17T05:29:07;21.70;44.30
75615;DHT22;64199;48.578;-4.520;2022-12-17T05:31:51;21.70;44.20
75615;DHT22;64199;48.578;-4.520;2022-12-17T05:34:35;21.70;44.10
75615;DHT22;64199;48.578;-4.520;2022-12-17T05:37:20;21.70;44.00
75615;DHT22;64199;48.578;-4.520;2022-12-17T05:40:06;21.70;44.00
75615;DHT22;64199;48.578;-4.520;2022-12-17T05:42:59;21.70;43.90
75615;DHT22;64199;48.578;-4.520;2022-12-17T05:45:45;21.70;43.80
75615;DHT22;64199;48.578;-4.520;2022-12-17T05:48:33;21.60;43.70
75615;DHT22;64199;48.578;-4.520;2022-12-17T05:51:20;21.60;43.70
75615;DHT22;64199;48.578;-4.520;2022-12-17T05:54:08;21.60;43.60
75615;DHT22;64199;48.578;-4.520;2022-12-17T05:56:54;21.60;43.70
75615;DHT22;64199;48.578;-4.520;2022-12-17T05:59:40;21.60;43.60
75615;DHT22;64199;48.578;-4.520;2022-12-17T06:02:25;21.60;43.60
75615;DHT22;64199;48.578;-4.520;2022-12-17T06:05:10;21.60;43.60
75615;DHT22;64199;48.578;-4.520;2022-12-17T06:08:05;21.60;43.60
75615;DHT22;64199;48.578;-4.520;2022-12-17T06:10:50;21.60;43.60
75615;DHT22;64199;48.578;-4.520;2022-12-17T06:13:43;21.60;43.60
75615;DHT22;64199;48.578;-4.520;2022-12-17T06:16:28;21.60;43.60
75615;DHT22;64199;48.578;-4.520;2022-12-17T06:19:12;21.60;43.60
75615;DHT22;64199;48.578;-4.520;2022-12-17T06:21:56;21.60;43.70
75615;DHT22;64199;48.578;-4.520;2022-12-17T06:24:41;21.60;43.70
75615;DHT22;64199;48.578;-4.520;2022-12-17T06:27:25;21.60;43.70
75615;DHT22;64199;48.578;-4.520;2022-12-17T06:30:10;21.50;43.70
75615;DHT22;64199;48.578;-4.520;2022-12-17T06:33:09;21.50;44.30
75615;DHT22;64199;48.578;-4.520;2022-12-17T06:35:55;21.60;43.70
75615;DHT22;64199;48.578;-4.520;2022-12-17T06:38:40;21.50;43.70
75615;DHT22;64199;48.578;-4.520;2022-12-17T06:41:25;21.50;43.60
75615;DHT22;64199;48.578;-4.520;2022-12-17T06:44:10;21.50;44.30
75615;DHT22;64199;48.578;-4.520;2022-12-17T06:46:55;21.50;43.60
75615;DHT22;64199;48.578;-4.520;2022-12-17T06:49:39;21.50;43.70
75615;DHT22;64199;48.578;-4.520;2022-12-17T06:52:23;21.50;43.60
75615;DHT22;64199;48.578;-4.520;2022-12-17T06:55:09;21.50;43.60
75615;DHT22;64199;48.578;-4.520;2022-12-17T06:58:00;21.50;43.60
75615;DHT22;64199;48.578;-4.520;2022-12-17T07:00:46;21.40;43.50
75615;DHT22;64199;48.578;-4.520;2022-12-17T07:03:30;21.40;43.50
75615;DHT22;64199;48.578;-4.520;2022-12-17T07:06:17;21.40;43.50
75615;DHT22;64199;48.578;-4.520;2022-12-17T07:09:02;21.50;43.50
75615;DHT22;64199;48.578;-4.520;2022-12-17T07:11:46;21.50;43.60
75615;DHT22;64199;48.578;-4.520;2022-12-17T07:14:48;21.50;43.90
75615;DHT22;64199;48.578;-4.520;2022-12-17T07:17:32;21.50;44.10
75615;DHT22;64199;48.578;-4.520;2022-12-17T07:20:16;21.50;44.10
75615;DHT22;64199;48.578;-4.520;2022-12-17T07:23:01;21.40;43.90
75615;DHT22;64199;48.578;-4.520;2022-12-17T07:25:45;21.60;43.80
75615;DHT22;64199;48.578;-4.520;2022-12-17T07:28:30;21.90;43.40
75615;DHT22;64199;48.578;-4.520;2022-12-17T07:31:15;22.20;42.80
75615;DHT22;64199;48.578;-4.520;2022-12-17T07:34:00;22.30;42.20
75615;DHT22;64199;48.578;-4.520;2022-12-17T07:36:44;22.40;42.70
75615;DHT22;64199;48.578;-4.520;2022-12-17T07:39:28;22.50;42.90
75615;DHT22;64199;48.578;-4.520;2022-12-17T07:42:12;22.50;42.60
75615;DHT22;64199;48.578;-4.520;2022-12-17T07:45:00;22.50;42.40
75615;DHT22;64199;48.578;-4.520;2022-12-17T07:47:51;22.50;42.10
75615;DHT22;64199;48.578;-4.520;2022-12-17T07:50:38;22.50;42.00
75615;DHT22;64199;48.578;-4.520;2022-12-17T07:53:23;22.50;41.80
75615;DHT22;64199;48.578;-4.520;2022-12-17T07:56:07;22.40;41.70
75615;DHT22;64199;48.578;-4.520;2022-12-17T07:58:56;22.50;41.80
75615;DHT22;64199;48.578;-4.520;2022-12-17T08:01:42;22.40;41.70
75615;DHT22;64199;48.578;-4.520;2022-12-17T08:04:26;22.40;41.70
75615;DHT22;64199;48.578;-4.520;2022-12-17T08:07:10;22.30;41.60
75615;DHT22;64199;48.578;-4.520;2022-12-17T08:09:55;22.20;41.60
75615;DHT22;64199;48.578;-4.520;2022-12-17T08:12:53;22.20;41.60
75615;DHT22;64199;48.578;-4.520;2022-12-17T08:15:38;22.10;41.50
75615;DHT22;64199;48.578;-4.520;2022-12-17T08:18:22;22.10;41.50
75615;DHT22;64199;48.578;-4.520;2022-12-17T08:21:07;22.00;41.50
75615;DHT22;64199;48.578;-4.520;2022-12-17T08:23:51;22.00;41.80
75615;DHT22;64199;48.578;-4.520;2022-12-17T08:26:36;22.00;42.10
75615;DHT22;64199;48.578;-4.520;2022-12-17T08:29:26;22.00;42.20
75615;DHT22;64199;48.578;-4.520;2022-12-17T08:32:10;22.00;42.20
75615;DHT22;64199;48.578;-4.520;2022-12-17T08:34:54;21.90;42.20
75615;DHT22;64199;48.578;-4.520;2022-12-17T08:37:39;21.90;42.20
75615;DHT22;64199;48.578;-4.520;2022-12-17T08:40:23;21.90;42.20
75615;DHT22;64199;48.578;-4.520;2022-12-17T08:43:07;21.90;42.10
75615;DHT22;64199;48.578;-4.520;2022-12-17T08:45:52;21.90;42.10
75615;DHT22;64199;48.578;-4.520;2022-12-17T08:48:37;21.80;42.10
75615;DHT22;64199;48.578;-4.520;2022-12-17T08:51:22;21.80;42.10
75615;DHT22;64199;48.578;-4.520;2022-12-17T08:54:06;21.80;42.70
75615;DHT22;64199;48.578;-4.520;2022-12-17T08:56:50;21.70;42.00
75615;DHT22;64199;48.578;-4.520;2022-12-17T08:59:34;21.80;42.10
75615;DHT22;64199;48.578;-4.520;2022-12-17T09:02:18;21.70;42.00
75615;DHT22;64199;48.578;-4.520;2022-12-17T09:05:03;21.70;42.00
75615;DHT22;64199;48.578;-4.520;2022-12-17T09:07:47;21.70;42.00
75615;DHT22;64199;48.578;-4.520;2022-12-17T09:10:32;21.60;42.00
75615;DHT22;64199;48.578;-4.520;2022-12-17T09:13:16;21.70;42.00
75615;DHT22;64199;48.578;-4.520;2022-12-17T09:16:00;21.60;42.00
75615;DHT22;64199;48.578;-4.520;2022-12-17T09:18:44;21.60;42.00
75615;DHT22;64199;48.578;-4.520;2022-12-17T09:21:29;21.60;42.00
75615;DHT22;64199;48.578;-4.520;2022-12-17T09:24:14;21.60;42.00
75615;DHT22;64199;48.578;-4.520;2022-12-17T09:26:59;21.60;42.00
75615;DHT22;64199;48.578;-4.520;2022-12-17T09:29:44;21.50;41.90
75615;DHT22;64199;48.578;-4.520;2022-12-17T09:32:29;21.50;42.00
75615;DHT22;64199;48.578;-4.520;2022-12-17T09:35:13;21.50;41.90
75615;DHT22;64199;48.578;-4.520;2022-12-17T09:37:57;21.50;41.90
75615;DHT22;64199;48.578;-4.520;2022-12-17T09:40:49;21.50;41.90
75615;DHT22;64199;48.578;-4.520;2022-12-17T09:43:50;21.50;41.90
75615;DHT22;64199;48.578;-4.520;2022-12-17T09:46:41;21.50;41.90
75615;DHT22;64199;48.578;-4.520;2022-12-17T09:49:28;21.50;41.90
75615;DHT22;64199;48.578;-4.520;2022-12-17T09:52:32;21.40;41.80
75615;DHT22;64199;48.578;-4.520;2022-12-17T09:55:24;21.40;41.90
75615;DHT22;64199;48.578;-4.520;2022-12-17T10:01:02;21.40;41.90
75615;DHT22;64199;48.578;-4.520;2022-12-17T10:03:46;21.40;41.80
75615;DHT22;64199;48.578;-4.520;2022-12-17T10:06:32;21.40;41.80
75615;DHT22;64199;48.578;-4.520;2022-12-17T10:09:18;21.40;41.80
75615;DHT22;64199;48.578;-4.520;2022-12-17T10:12:17;21.40;41.80
75615;DHT22;64199;48.578;-4.520;2022-12-17T10:15:03;21.40;41.90
75615;DHT22;64199;48.578;-4.520;2022-12-17T10:17:47;21.30;41.80
75615;DHT22;64199;48.578;-4.520;2022-12-17T10:20:41;21.40;41.80
75615;DHT22;64199;48.578;-4.520;2022-12-17T10:23:29;21.40;41.80
75615;DHT22;64199;48.578;-4.520;2022-12-17T10:26:25;21.40;41.90
75615;DHT22;64199;48.578;-4.520;2022-12-17T10:29:16;21.30;41.80
75615;DHT22;64199;48.578;-4.520;2022-12-17T10:32:19;21.30;41.80
75615;DHT22;64199;48.578;-4.520;2022-12-17T10:35:20;21.30;41.70
75615;DHT22;64199;48.578;-4.520;2022-12-17T10:44:29;21.30;41.80
75615;DHT22;64199;48.578;-4.520;2022-12-17T10:47:25;21.30;41.70
75615;DHT22;64199;48.578;-4.520;2022-12-17T10:50:31;21.40;41.80
75615;DHT22;64199;48.578;-4.520;2022-12-17T10:53:23;21.30;41.80
75615;DHT22;64199;48.578;-4.520;2022-12-17T10:56:21;21.30;41.80
75615;DHT22;64199;48.578;-4.520;2022-12-17T10:59:12;21.30;41.80
75615;DHT22;64199;48.578;-4.520;2022-12-17T11:01:58;21.30;41.80
75615;DHT22;64199;48.578;-4.520;2022-12-17T11:04:51;21.30;41.80
75615;DHT22;64199;48.578;-4.520;2022-12-17T11:07:40;21.30;41.80
75615;DHT22;64199;48.578;-4.520;2022-12-17T11:10:29;21.30;41.80
75615;DHT22;64199;48.578;-4.520;2022-12-17T11:13:26;21.30;41.80
75615;DHT22;64199;48.578;-4.520;2022-12-17T11:16:40;21.30;41.80
75615;DHT22;64199;48.578;-4.520;2022-12-17T11:19:57;21.30;41.80
75615;DHT22;64199;48.578;-4.520;2022-12-17T11:22:53;21.30;41.80
75615;DHT22;64199;48.578;-4.520;2022-12-17T11:26:04;21.30;41.80
75615;DHT22;64199;48.578;-4.520;2022-12-17T11:28:49;21.30;41.80
75615;DHT22;64199;48.578;-4.520;2022-12-17T11:32:16;21.30;41.80
75615;DHT22;64199;48.578;-4.520;2022-12-17T11:35:15;21.30;41.80
75615;DHT22;64199;48.578;-4.520;2022-12-17T11:41:06;21.30;41.80
75615;DHT22;64199;48.578;-4.520;2022-12-17T11:50:27;21.30;41.80
75615;DHT22;64199;48.578;-4.520;2022-12-17T11:56:20;21.30;41.70
75615;DHT22;64199;48.578;-4.520;2022-12-17T11:59:30;21.30;41.70
75615;DHT22;64199;48.578;-4.520;2022-12-17T12:05:58;21.30;41.70
75615;DHT22;64199;48.578;-4.520;2022-12-17T12:09:06;21.30;41.70
75615;DHT22;64199;48.578;-4.520;2022-12-17T12:16:11;21.30;41.70
75615;DHT22;64199;48.578;-4.520;2022-12-17T12:21:50;21.40;42.40
75615;DHT22;64199;48.578;-4.520;2022-12-17T12:28:04;21.40;41.80
75615;DHT22;64199;48.578;-4.520;2022-12-17T12:31:04;21.30;41.70
75615;DHT22;64199;48.578;-4.520;2022-12-17T12:33:54;21.40;41.80
75615;DHT22;64199;48.578;-4.520;2022-12-17T12:36:40;21.40;41.80
75615;DHT22;64199;48.578;-4.520;2022-12-17T12:39:54;21.40;41.90
75615;DHT22;64199;48.578;-4.520;2022-12-17T12:42:42;21.50;42.00
75615;DHT22;64199;48.578;-4.520;2022-12-17T12:45:36;21.50;42.10
75615;DHT22;64199;48.578;-4.520;2022-12-17T12:51:26;21.50;42.20
75615;DHT22;64199;48.578;-4.520;2022-12-17T12:57:22;21.60;42.30
75615;DHT22;64199;48.578;-4.520;2022-12-17T13:03:30;21.60;42.50
75615;DHT22;64199;48.578;-4.520;2022-12-17T13:17:33;21.60;42.50
75615;DHT22;64199;48.578;-4.520;2022-12-17T13:20:24;21.60;42.50
75615;DHT22;64199;48.578;-4.520;2022-12-17T13:25:34;21.60;42.40
75615;DHT22;64199;48.578;-4.520;2022-12-17T13:28:00;21.70;42.40
75615;DHT22;64199;48.578;-4.520;2022-12-17T13:30:32;21.70;42.40
75615;DHT22;64199;48.578;-4.520;2022-12-17T13:38:32;21.70;42.30
75615;DHT22;64199;48.578;-4.520;2022-12-17T13:41:06;21.70;42.30
75615;DHT22;64199;48.578;-4.520;2022-12-17T13:46:14;21.70;42.20
75615;DHT22;64199;48.578;-4.520;2022-12-17T13:48:41;21.80;42.30
75615;DHT22;64199;48.578;-4.520;2022-12-17T13:51:18;21.80;42.20
75615;DHT22;64199;48.578;-4.520;2022-12-17T13:53:51;21.80;42.20
75615;DHT22;64199;48.578;-4.520;2022-12-17T13:56:22;21.80;42.20
75615;DHT22;64199;48.578;-4.520;2022-12-17T13:58:53;21.80;42.20
75615;DHT22;64199;48.578;-4.520;2022-12-17T14:01:20;21.80;42.20
75615;DHT22;64199;48.578;-4.520;2022-12-17T14:03:52;21.90;42.30
75615;DHT22;64199;48.578;-4.520;2022-12-17T14:06:19;21.80;42.20
75615;DHT22;64199;48.578;-4.520;2022-12-17T14:08:46;21.80;42.10
75615;DHT22;64199;48.578;-4.520;2022-12-17T14:11:13;21.90;42.20
75615;DHT22;64199;48.578;-4.520;2022-12-17T14:13:58;21.90;42.20
75615;DHT22;64199;48.578;-4.520;2022-12-17T14:16:25;21.90;42.20
75615;DHT22;64199;48.578;-4.520;2022-12-17T14:18:58;21.90;42.20
75615;DHT22;64199;48.578;-4.520;2022-12-17T14:21:42;21.90;42.20
75615;DHT22;64199;48.578;-4.520;2022-12-17T14:24:12;21.90;42.20
75615;DHT22;64199;48.578;-4.520;2022-12-17T14:26:55;21.90;42.30
75615;DHT22;64199;48.578;-4.520;2022-12-17T14:29:26;21.90;42.20
75615;DHT22;64199;48.578;-4.520;2022-12-17T14:31:58;21.90;42.20
75615;DHT22;64199;48.578;-4.520;2022-12-17T14:34:25;21.90;42.20
75615;DHT22;64199;48.578;-4.520;2022-12-17T14:36:56;21.90;42.20
75615;DHT22;64199;48.578;-4.520;2022-12-17T14:39:27;21.90;42.20
75615;DHT22;64199;48.578;-4.520;2022-12-17T14:41:56;22.00;42.20
75615;DHT22;64199;48.578;-4.520;2022-12-17T14:45:00;21.90;42.20
75615;DHT22;64199;48.578;-4.520;2022-12-17T14:47:31;21.90;42.20
75615;DHT22;64199;48.578;-4.520;2022-12-17T14:50:23;21.90;42.20
75615;DHT22;64199;48.578;-4.520;2022-12-17T14:52:53;21.90;42.20
75615;DHT22;64199;48.578;-4.520;2022-12-17T14:57:49;21.90;42.20
75615;DHT22;64199;48.578;-4.520;2022-12-17T15:00:15;21.90;42.20
75615;DHT22;64199;48.578;-4.520;2022-12-17T15:02:42;21.90;42.20
75615;DHT22;64199;48.578;-4.520;2022-12-17T15:05:13;22.00;42.20
75615;DHT22;64199;48.578;-4.520;2022-12-17T15:07:40;22.00;42.20
75615;DHT22;64199;48.578;-4.520;2022-12-17T15:10:16;22.00;42.20
75615;DHT22;64199;48.578;-4.520;2022-12-17T15:12:43;22.00;42.20
75615;DHT22;64199;48.578;-4.520;2022-12-17T15:15:13;22.00;42.20
75615;DHT22;64199;48.578;-4.520;2022-12-17T15:17:40;22.00;42.20
75615;DHT22;64199;48.578;-4.520;2022-12-17T15:20:07;22.00;42.20
75615;DHT22;64199;48.578;-4.520;2022-12-17T15:22:37;22.00;42.20
75615;DHT22;64199;48.578;-4.520;2022-12-17T15:25:03;22.00;42.20
75615;DHT22;64199;48.578;-4.520;2022-12-17T15:27:29;22.00;42.20
75615;DHT22;64199;48.578;-4.520;2022-12-17T15:29:55;22.00;42.20
75615;DHT22;64199;48.578;-4.520;2022-12-17T15:32:22;22.00;42.20
75615;DHT22;64199;48.578;-4.520;2022-12-17T15:34:49;22.00;42.20
75615;DHT22;64199;48.578;-4.520;2022-12-17T15:37:15;22.00;42.20
75615;DHT22;64199;48.578;-4.520;2022-12-17T15:39:42;22.00;42.20
75615;DHT22;64199;48.578;-4.520;2022-12-17T15:42:08;22.00;42.30
75615;DHT22;64199;48.578;-4.520;2022-12-17T15:44:53;22.00;42.30
75615;DHT22;64199;48.578;-4.520;2022-12-17T15:47:19;22.00;42.30
75615;DHT22;64199;48.578;-4.520;2022-12-17T15:49:45;22.00;42.40
75615;DHT22;64199;48.578;-4.520;2022-12-17T15:52:11;22.00;42.40
75615;DHT22;64199;48.578;-4.520;2022-12-17T15:54:43;22.00;42.40
75615;DHT22;64199;48.578;-4.520;2022-12-17T15:57:09;22.00;42.40
75615;DHT22;64199;48.578;-4.520;2022-12-17T15:59:35;22.00;42.40
75615;DHT22;64199;48.578;-4.520;2022-12-17T16:02:01;22.00;42.30
75615;DHT22;64199;48.578;-4.520;2022-12-17T16:04:26;22.00;42.30
75615;DHT22;64199;48.578;-4.520;2022-12-17T16:06:53;22.00;42.30
75615;DHT22;64199;48.578;-4.520;2022-12-17T16:09:19;22.00;42.30
75615;DHT22;64199;48.578;-4.520;2022-12-17T16:11:51;22.00;42.30
75615;DHT22;64199;48.578;-4.520;2022-12-17T16:14:17;22.00;42.30
75615;DHT22;64199;48.578;-4.520;2022-12-17T16:16:43;22.10;42.40
75615;DHT22;64199;48.578;-4.520;2022-12-17T16:19:09;22.10;42.40
75615;DHT22;64199;48.578;-4.520;2022-12-17T16:21:35;22.10;42.40
75615;DHT22;64199;48.578;-4.520;2022-12-17T16:24:00;22.00;42.40
75615;DHT22;64199;48.578;-4.520;2022-12-17T16:26:26;22.10;42.40
75615;DHT22;64199;48.578;-4.520;2022-12-17T16:28:52;22.10;42.40
75615;DHT22;64199;48.578;-4.520;2022-12-17T16:31:18;22.10;42.40
75615;DHT22;64199;48.578;-4.520;2022-12-17T16:33:44;22.10;42.40
75615;DHT22;64199;48.578;-4.520;2022-12-17T16:36:14;22.10;42.40
75615;DHT22;64199;48.578;-4.520;2022-12-17T16:38:58;22.10;42.40
75615;DHT22;64199;48.578;-4.520;2022-12-17T16:41:24;22.10;43.00
75615;DHT22;64199;48.578;-4.520;2022-12-17T16:43:50;22.10;42.30
75615;DHT22;64199;48.578;-4.520;2022-12-17T16:46:38;22.10;42.30
75615;DHT22;64199;48.578;-4.520;2022-12-17T16:49:07;22.10;43.00
75615;DHT22;64199;48.578;-4.520;2022-12-17T16:51:34;22.00;42.30
75615;DHT22;64199;48.578;-4.520;2022-12-17T16:54:04;22.10;42.40
75615;DHT22;64199;48.578;-4.520;2022-12-17T16:56:31;22.10;42.40
75615;DHT22;64199;48.578;-4.520;2022-12-17T16:58:56;22.10;42.40
75615;DHT22;64199;48.578;-4.520;2022-12-17T17:01:27;22.10;42.40
75615;DHT22;64199;48.578;-4.520;2022-12-17T17:03:54;22.10;42.40
75615;DHT22;64199;48.578;-4.520;2022-12-17T17:06:20;22.10;42.40
75615;DHT22;64199;48.578;-4.520;2022-12-17T17:08:47;22.10;42.40
75615;DHT22;64199;48.578;-4.520;2022-12-17T17:13:41;22.10;42.50
75615;DHT22;64199;48.578;-4.520;2022-12-17T17:16:08;22.10;42.50
75615;DHT22;64199;48.578;-4.520;2022-12-17T17:18:35;22.10;42.50
75615;DHT22;64199;48.578;-4.520;2022-12-17T17:23:50;22.10;42.50
75615;DHT22;64199;48.578;-4.520;2022-12-17T17:26:16;22.10;42.50
75615;DHT22;64199;48.578;-4.520;2022-12-17T17:28:44;22.10;42.50
75615;DHT22;64199;48.578;-4.520;2022-12-17T17:31:11;22.10;42.50
75615;DHT22;64199;48.578;-4.520;2022-12-17T17:33:41;22.10;42.50
75615;DHT22;64199;48.578;-4.520;2022-12-17T17:36:19;22.10;42.50
75615;DHT22;64199;48.578;-4.520;2022-12-17T17:38:46;22.10;42.50
75615;DHT22;64199;48.578;-4.520;2022-12-17T17:41:15;22.10;42.50
75615;DHT22;64199;48.578;-4.520;2022-12-17T17:43:42;22.10;42.50
75615;DHT22;64199;48.578;-4.520;2022-12-17T17:46:13;22.10;42.50
75615;DHT22;64199;48.578;-4.520;2022-12-17T17:48:40;22.10;42.40
75615;DHT22;64199;48.578;-4.520;2022-12-17T17:51:09;22.10;42.40
75615;DHT22;64199;48.578;-4.520;2022-12-17T17:53:35;22.10;42.40
75615;DHT22;64199;48.578;-4.520;2022-12-17T17:56:06;22.20;42.40
75615;DHT22;64199;48.578;-4.520;2022-12-17T17:58:40;22.10;42.30
75615;DHT22;64199;48.578;-4.520;2022-12-17T18:01:07;22.10;42.40
75615;DHT22;64199;48.578;-4.520;2022-12-17T18:03:33;22.10;42.30
75615;DHT22;64199;48.578;-4.520;2022-12-17T18:06:05;22.10;42.30
75615;DHT22;64199;48.578;-4.520;2022-12-17T18:08:33;22.10;42.20
75615;DHT22;64199;48.578;-4.520;2022-12-17T18:11:03;22.10;42.20
75615;DHT22;64199;48.578;-4.520;2022-12-17T18:13:29;22.10;42.20
75615;DHT22;64199;48.578;-4.520;2022-12-17T18:16:14;22.10;42.20